createdAt,value
2022-10-14T00:04:03.173Z,9
2022-10-14T00:09:03.170Z,10
2022-10-14T00:14:03.202Z,11
2022-10-14T00:19:13.501Z,12
2022-10-14T00:25:03.220Z,12
2022-10-14T00:30:13.503Z,10
2022-10-14T00:36:03.038Z,12
2022-10-14T00:42:13.484Z,10
2022-10-14T00:48:03.000Z,11
2022-10-14T00:53:03.219Z,11
2022-10-14T00:58:13.512Z,10
2022-10-14T01:04:03.284Z,10
2022-10-14T01:09:13.490Z,9
2022-10-14T01:14:13.510Z,10
2022-10-14T01:20:02.977Z,9
2022-10-14T01:25:03.008Z,9
2022-10-14T01:30:03.210Z,10
2022-10-14T01:35:13.464Z,11
2022-10-14T01:40:14.627Z,9
2022-10-14T01:46:03.197Z,10
2022-10-14T01:51:03.239Z,12
2022-10-14T01:56:13.291Z,9
2022-10-14T02:01:13.537Z,8
2022-10-14T02:07:02.984Z,8
2022-10-14T02:12:14.634Z,8
2022-10-14T02:18:03.247Z,9
2022-10-14T02:23:13.494Z,9
2022-10-14T02:28:13.695Z,8
2022-10-14T02:34:03.195Z,9
2022-10-14T02:39:13.224Z,9
2022-10-14T02:44:13.473Z,8
2022-10-14T02:50:03.169Z,9
2022-10-14T02:55:03.181Z,8
2022-10-14T03:00:13.526Z,8
2022-10-14T03:06:02.947Z,7
2022-10-14T03:11:03.506Z,9
2022-10-14T03:16:13.534Z,8
2022-10-14T03:22:03.033Z,8
2022-10-14T03:27:03.022Z,8
2022-10-14T03:32:13.356Z,9
2022-10-14T03:38:03.023Z,8
2022-10-14T03:43:03.118Z,8
2022-10-14T03:48:13.303Z,9
2022-10-14T03:54:02.989Z,10
2022-10-14T03:59:03.038Z,8
2022-10-14T04:04:13.358Z,9
2022-10-14T04:09:13.347Z,10
2022-10-14T04:15:03.012Z,10
2022-10-14T04:20:03.060Z,8
2022-10-14T04:25:13.286Z,11
2022-10-14T04:30:13.301Z,8
2022-10-14T04:35:13.364Z,10
2022-10-14T04:40:13.391Z,7
2022-10-14T04:45:13.489Z,9
2022-10-14T04:50:13.487Z,13
2022-10-14T04:55:13.547Z,8
2022-10-14T05:01:03.193Z,9
2022-10-14T05:06:03.246Z,9
2022-10-14T05:11:13.538Z,11
2022-10-14T05:16:13.548Z,10
2022-10-14T05:22:03.194Z,11
2022-10-14T05:27:03.243Z,10
2022-10-14T05:32:13.475Z,11
2022-10-14T05:37:13.474Z,9
2022-10-14T05:43:03.083Z,8
2022-10-14T05:48:03.143Z,9
2022-10-14T05:53:03.240Z,9
2022-10-14T05:58:13.547Z,10
2022-10-14T06:03:13.696Z,9
2022-10-14T06:09:05.529Z,9
2022-10-14T06:14:03.275Z,9
2022-10-14T06:19:03.278Z,10
2022-10-14T06:24:13.510Z,10
2022-10-14T06:29:13.588Z,12
2022-10-14T06:35:03.204Z,12
2022-10-14T06:40:03.211Z,14
2022-10-14T06:45:03.265Z,10
2022-10-14T06:50:13.485Z,8
2022-10-14T06:55:13.499Z,10
2022-10-14T07:01:03.150Z,9
2022-10-14T07:06:03.239Z,9
2022-10-14T07:11:13.315Z,7
2022-10-14T07:17:03.282Z,7
2022-10-14T07:22:13.311Z,6
2022-10-14T07:27:13.551Z,9
2022-10-14T07:33:03.251Z,8
2022-10-14T07:38:03.268Z,10
2022-10-14T07:43:13.361Z,6
2022-10-14T07:49:03.197Z,8
2022-10-14T07:54:03.219Z,6
2022-10-14T07:59:03.276Z,7
2022-10-14T08:04:13.417Z,6
2022-10-14T08:09:13.684Z,6
2022-10-14T08:15:03.137Z,7
2022-10-14T08:20:03.242Z,6
2022-10-14T08:25:03.573Z,7
2022-10-14T08:30:13.513Z,6
2022-10-14T08:35:13.549Z,6
2022-10-14T08:41:03.299Z,6
2022-10-14T08:46:13.402Z,7
2022-10-14T08:51:13.557Z,9
2022-10-14T08:57:03.126Z,7
2022-10-14T09:02:03.367Z,8
2022-10-14T09:07:13.343Z,9
2022-10-14T09:12:13.520Z,6
2022-10-14T09:17:13.635Z,9
2022-10-14T09:23:03.424Z,8
2022-10-14T09:28:13.308Z,10
2022-10-14T09:33:13.580Z,11
2022-10-14T09:39:05.507Z,12
2022-10-14T09:44:03.337Z,10
2022-10-14T09:49:13.406Z,14
2022-10-14T09:55:03.001Z,11
2022-10-14T10:00:03.040Z,12
2022-10-14T10:05:03.045Z,12
2022-10-14T10:10:03.073Z,12
2022-10-14T10:15:13.303Z,12
2022-10-14T10:20:13.343Z,12
2022-10-14T10:26:03.129Z,12
2022-10-14T10:31:13.396Z,11
2022-10-14T10:37:03.095Z,12
2022-10-14T10:42:03.112Z,13
2022-10-14T10:47:13.454Z,12
2022-10-14T10:53:03.220Z,10
2022-10-14T10:58:06.080Z,13
2022-10-14T11:03:13.516Z,12
2022-10-14T11:08:13.568Z,13
2022-10-14T11:14:03.241Z,11
2022-10-14T11:19:03.307Z,12
2022-10-14T11:24:13.647Z,11
2022-10-14T11:30:03.232Z,11
2022-10-14T11:35:13.353Z,12
2022-10-14T11:41:03.226Z,12
2022-10-14T11:46:03.234Z,12
2022-10-14T11:51:13.488Z,12
2022-10-14T11:56:13.502Z,11
2022-10-14T12:01:14.237Z,12
2022-10-14T12:07:03.272Z,10
2022-10-14T12:12:13.510Z,10
2022-10-14T12:17:16.068Z,11
2022-10-14T12:22:13.612Z,12
2022-10-14T12:28:04.339Z,11
2022-10-14T12:33:13.518Z,10
2022-10-14T12:38:13.555Z,12
2022-10-14T12:44:03.239Z,11
2022-10-14T12:49:13.555Z,10
2022-10-14T12:54:13.581Z,10
2022-10-14T13:00:03.268Z,9
2022-10-14T13:05:13.529Z,9
2022-10-14T13:10:13.576Z,8
2022-10-14T13:16:03.324Z,8
2022-10-14T13:21:13.567Z,8
2022-10-14T13:26:13.680Z,8
2022-10-14T13:32:03.225Z,9
2022-10-14T13:37:03.241Z,11
2022-10-14T13:42:03.466Z,9
2022-10-14T13:47:13.528Z,8
2022-10-14T13:52:13.604Z,8
2022-10-14T13:58:18.663Z,8
2022-10-14T14:03:13.356Z,8
2022-10-14T14:08:36.643Z,6
2022-10-14T14:14:03.298Z,5
2022-10-14T14:19:08.891Z,7
2022-10-14T14:24:03.329Z,8
2022-10-14T14:29:13.593Z,6
2022-10-14T14:35:03.145Z,5
2022-10-14T14:40:13.377Z,6
2022-10-14T14:45:13.559Z,9
2022-10-14T14:51:03.264Z,7
2022-10-14T14:56:14.310Z,6
2022-10-14T15:02:03.305Z,5
2022-10-14T15:07:17.493Z,5
2022-10-14T15:12:13.550Z,6
2022-10-14T15:18:03.278Z,5
2022-10-14T15:23:03.258Z,6
2022-10-14T15:28:03.265Z,6
2022-10-14T15:33:03.264Z,4
2022-10-14T15:38:03.351Z,4
2022-10-14T15:43:15.161Z,5
2022-10-14T15:48:13.585Z,6
2022-10-14T15:53:13.827Z,5
2022-10-14T15:59:03.024Z,4
2022-10-14T16:04:03.128Z,3
2022-10-14T16:09:13.379Z,5
2022-10-14T16:15:03.153Z,4
2022-10-14T16:20:13.392Z,3
2022-10-14T16:25:13.444Z,3
2022-10-14T16:31:03.058Z,4
2022-10-14T16:36:03.108Z,7
2022-10-14T16:41:13.379Z,5
2022-10-14T16:46:15.678Z,6
2022-10-14T16:52:03.106Z,5
2022-10-14T16:58:03.270Z,6
2022-10-14T17:03:03.314Z,10
2022-10-14T17:08:13.556Z,7
2022-10-14T17:13:13.594Z,9
2022-10-14T17:18:15.719Z,8
2022-10-14T17:23:13.595Z,5
2022-10-14T17:29:03.471Z,6
2022-10-14T17:34:03.293Z,4
2022-10-14T17:39:17.628Z,5
2022-10-14T17:44:13.625Z,4
2022-10-14T17:50:03.093Z,4
2022-10-14T17:55:03.385Z,6
2022-10-14T18:00:13.483Z,4
2022-10-14T18:05:13.617Z,4
2022-10-14T18:10:13.606Z,4
2022-10-14T18:15:13.658Z,7
2022-10-14T18:21:03.294Z,15
2022-10-14T18:26:03.310Z,10
2022-10-14T18:31:13.593Z,7
2022-10-14T18:36:13.614Z,6
2022-10-14T18:41:13.605Z,5
2022-10-14T18:47:03.295Z,4
2022-10-14T18:52:13.666Z,4
2022-10-14T18:58:03.308Z,6
2022-10-14T19:03:13.589Z,6
2022-10-14T19:14:03.156Z,11
2022-10-14T19:19:03.299Z,12
2022-10-14T19:24:13.759Z,13
2022-10-14T19:30:03.313Z,14
2022-10-14T19:35:13.688Z,9
2022-10-14T19:41:03.351Z,8
2022-10-14T19:46:13.576Z,5
2022-10-14T19:51:13.568Z,5
2022-10-14T19:57:03.331Z,6
2022-10-14T20:02:03.316Z,7
2022-10-14T20:07:13.565Z,9
2022-10-14T20:13:03.314Z,8
2022-10-14T20:18:03.362Z,10
2022-10-14T20:23:13.360Z,10
2022-10-14T20:28:13.619Z,12
2022-10-14T20:34:06.054Z,11
2022-10-14T20:39:03.302Z,11
2022-10-14T20:44:03.388Z,12
2022-10-14T20:49:04.337Z,9
2022-10-14T20:54:13.573Z,9
2022-10-14T21:00:03.380Z,9
2022-10-14T21:05:13.614Z,9
2022-10-14T21:11:03.311Z,7
2022-10-14T21:16:13.638Z,7
2022-10-14T21:21:16.581Z,7
2022-10-14T21:27:03.353Z,7
2022-10-14T21:32:13.809Z,6
2022-10-14T21:38:03.318Z,5
2022-10-14T21:43:13.659Z,7
2022-10-14T21:49:10.500Z,5
2022-10-14T21:54:13.359Z,4
2022-10-14T21:59:13.666Z,5
2022-10-14T22:04:13.749Z,4
2022-10-14T22:10:03.134Z,3
2022-10-14T22:15:13.365Z,3
2022-10-14T22:20:13.591Z,3
2022-10-14T22:26:03.138Z,4
2022-10-14T22:31:03.132Z,3
2022-10-14T22:36:13.426Z,3
2022-10-14T22:41:13.475Z,3
2022-10-14T22:47:03.152Z,3
2022-10-14T22:52:03.234Z,3
2022-10-14T22:57:13.414Z,4
2022-10-14T23:02:13.479Z,3
2022-10-14T23:08:03.171Z,4
2022-10-14T23:13:03.235Z,2
2022-10-14T23:18:03.340Z,3
2022-10-14T23:23:03.359Z,4
2022-10-14T23:28:13.613Z,3
2022-10-14T23:33:13.654Z,3
2022-10-14T23:39:03.131Z,4
2022-10-14T23:44:03.182Z,3
2022-10-14T23:49:25.139Z,7
2022-10-14T23:54:03.618Z,3
2022-10-14T23:59:21.897Z,4
